sensor_id;sensor_type;location;lat;lon;timestamp;P1;durP1;ratioP1;P2;durP2;ratioP2
19758;SDS011;10038;42.662;23.278;2023-02-15T00:01:18;36.70;;;17.88;;
19758;SDS011;10038;42.662;23.278;2023-02-15T00:03:46;36.13;;;18.05;;
19758;SDS011;10038;42.662;23.278;2023-02-15T00:06:13;35.05;;;16.27;;
19758;SDS011;10038;42.662;23.278;2023-02-15T00:08:41;42.55;;;18.55;;
19758;SDS011;10038;42.662;23.278;2023-02-15T00:11:08;38.33;;;18.48;;
19758;SDS011;10038;42.662;23.278;2023-02-15T00:13:35;38.28;;;18.20;;
19758;SDS011;10038;42.662;23.278;2023-02-15T00:16:04;47.35;;;19.88;;
19758;SDS011;10038;42.662;23.278;2023-02-15T00:18:30;36.53;;;17.83;;
19758;SDS011;10038;42.662;23.278;2023-02-15T00:21:02;46.20;;;16.63;;
19758;SDS011;10038;42.662;23.278;2023-02-15T00:23:28;34.20;;;17.65;;
19758;SDS011;10038;42.662;23.278;2023-02-15T00:26:02;39.33;;;18.13;;
19758;SDS011;10038;42.662;23.278;2023-02-15T00:28:29;36.80;;;17.83;;
19758;SDS011;10038;42.662;23.278;2023-02-15T00:31:01;36.85;;;18.35;;
19758;SDS011;10038;42.662;23.278;2023-02-15T00:33:28;36.35;;;16.60;;
19758;SDS011;10038;42.662;23.278;2023-02-15T00:35:55;31.00;;;15.70;;
19758;SDS011;10038;42.662;23.278;2023-02-15T00:38:23;43.60;;;18.13;;
19758;SDS011;10038;42.662;23.278;2023-02-15T00:40:52;36.42;;;16.50;;
19758;SDS011;10038;42.662;23.278;2023-02-15T00:43:18;33.55;;;17.02;;
19758;SDS011;10038;42.662;23.278;2023-02-15T00:45:45;47.60;;;19.25;;
19758;SDS011;10038;42.662;23.278;2023-02-15T00:48:11;39.85;;;17.17;;
19758;SDS011;10038;42.662;23.278;2023-02-15T00:50:37;35.30;;;17.02;;
19758;SDS011;10038;42.662;23.278;2023-02-15T00:53:04;37.20;;;17.35;;
19758;SDS011;10038;42.662;23.278;2023-02-15T00:55:32;37.85;;;17.52;;
19758;SDS011;10038;42.662;23.278;2023-02-15T00:57:58;38.13;;;17.27;;
19758;SDS011;10038;42.662;23.278;2023-02-15T01:00:25;34.05;;;16.00;;
19758;SDS011;10038;42.662;23.278;2023-02-15T01:02:58;36.15;;;15.90;;
19758;SDS011;10038;42.662;23.278;2023-02-15T01:05:25;33.42;;;16.00;;
19758;SDS011;10038;42.662;23.278;2023-02-15T01:07:54;34.50;;;15.90;;
19758;SDS011;10038;42.662;23.278;2023-02-15T01:10:21;34.25;;;16.63;;
19758;SDS011;10038;42.662;23.278;2023-02-15T01:12:48;34.42;;;18.98;;
19758;SDS011;10038;42.662;23.278;2023-02-15T01:15:15;30.40;;;15.68;;
19758;SDS011;10038;42.662;23.278;2023-02-15T01:17:42;31.60;;;15.60;;
19758;SDS011;10038;42.662;23.278;2023-02-15T01:20:16;38.35;;;16.83;;
19758;SDS011;10038;42.662;23.278;2023-02-15T01:22:45;30.80;;;15.70;;
19758;SDS011;10038;42.662;23.278;2023-02-15T01:25:15;27.88;;;14.50;;
19758;SDS011;10038;42.662;23.278;2023-02-15T01:27:45;33.22;;;15.32;;
19758;SDS011;10038;42.662;23.278;2023-02-15T01:30:14;33.60;;;16.67;;
19758;SDS011;10038;42.662;23.278;2023-02-15T01:32:41;34.38;;;14.95;;
19758;SDS011;10038;42.662;23.278;2023-02-15T01:35:08;32.55;;;16.33;;
19758;SDS011;10038;42.662;23.278;2023-02-15T01:37:35;37.38;;;14.70;;
19758;SDS011;10038;42.662;23.278;2023-02-15T01:40:02;35.67;;;17.10;;
19758;SDS011;10038;42.662;23.278;2023-02-15T01:42:29;31.48;;;15.07;;
19758;SDS011;10038;42.662;23.278;2023-02-15T01:44:56;35.00;;;16.45;;
19758;SDS011;10038;42.662;23.278;2023-02-15T01:47:27;37.30;;;15.45;;
19758;SDS011;10038;42.662;23.278;2023-02-15T01:49:58;36.40;;;17.83;;
19758;SDS011;10038;42.662;23.278;2023-02-15T01:52:26;35.63;;;17.65;;
19758;SDS011;10038;42.662;23.278;2023-02-15T01:54:52;35.22;;;16.50;;
19758;SDS011;10038;42.662;23.278;2023-02-15T01:57:19;39.50;;;16.20;;
19758;SDS011;10038;42.662;23.278;2023-02-15T01:59:49;34.85;;;15.13;;
19758;SDS011;10038;42.662;23.278;2023-02-15T02:02:18;29.05;;;14.32;;
19758;SDS011;10038;42.662;23.278;2023-02-15T02:04:47;30.98;;;16.52;;
19758;SDS011;10038;42.662;23.278;2023-02-15T02:07:14;30.20;;;13.77;;
19758;SDS011;10038;42.662;23.278;2023-02-15T02:09:42;36.22;;;16.33;;
19758;SDS011;10038;42.662;23.278;2023-02-15T02:12:08;33.10;;;14.32;;
19758;SDS011;10038;42.662;23.278;2023-02-15T02:14:35;47.17;;;18.02;;
19758;SDS011;10038;42.662;23.278;2023-02-15T02:17:03;31.58;;;16.38;;
19758;SDS011;10038;42.662;23.278;2023-02-15T02:25:14;31.42;;;16.52;;
19758;SDS011;10038;42.662;23.278;2023-02-15T02:27:45;32.33;;;14.73;;
19758;SDS011;10038;42.662;23.278;2023-02-15T02:33:03;24.65;;;14.95;;
19758;SDS011;10038;42.662;23.278;2023-02-15T02:35:36;30.35;;;15.52;;
19758;SDS011;10038;42.662;23.278;2023-02-15T02:38:06;28.85;;;14.15;;
19758;SDS011;10038;42.662;23.278;2023-02-15T02:40:41;30.23;;;14.77;;
19758;SDS011;10038;42.662;23.278;2023-02-15T02:43:10;31.00;;;16.23;;
19758;SDS011;10038;42.662;23.278;2023-02-15T02:45:39;36.20;;;16.40;;
19758;SDS011;10038;42.662;23.278;2023-02-15T02:48:09;38.38;;;17.58;;
19758;SDS011;10038;42.662;23.278;2023-02-15T02:50:38;28.15;;;15.10;;
19758;SDS011;10038;42.662;23.278;2023-02-15T02:53:05;32.35;;;14.73;;
19758;SDS011;10038;42.662;23.278;2023-02-15T02:55:33;34.95;;;17.20;;
19758;SDS011;10038;42.662;23.278;2023-02-15T02:58:06;33.50;;;15.60;;
19758;SDS011;10038;42.662;23.278;2023-02-15T03:00:36;33.45;;;15.18;;
19758;SDS011;10038;42.662;23.278;2023-02-15T03:03:05;29.20;;;14.63;;
19758;SDS011;10038;42.662;23.278;2023-02-15T03:05:34;30.63;;;15.40;;
19758;SDS011;10038;42.662;23.278;2023-02-15T03:08:02;31.85;;;14.95;;
19758;SDS011;10038;42.662;23.278;2023-02-15T03:10:31;26.55;;;15.23;;
19758;SDS011;10038;42.662;23.278;2023-02-15T03:12:58;32.20;;;14.68;;
19758;SDS011;10038;42.662;23.278;2023-02-15T03:15:26;28.95;;;13.88;;
19758;SDS011;10038;42.662;23.278;2023-02-15T03:18:15;29.80;;;14.32;;
19758;SDS011;10038;42.662;23.278;2023-02-15T03:20:44;29.05;;;14.18;;
19758;SDS011;10038;42.662;23.278;2023-02-15T03:23:11;25.83;;;12.90;;
19758;SDS011;10038;42.662;23.278;2023-02-15T03:25:40;21.42;;;11.15;;
19758;SDS011;10038;42.662;23.278;2023-02-15T03:28:07;29.95;;;14.40;;
19758;SDS011;10038;42.662;23.278;2023-02-15T03:30:35;32.15;;;14.60;;
19758;SDS011;10038;42.662;23.278;2023-02-15T03:33:12;38.08;;;14.52;;
19758;SDS011;10038;42.662;23.278;2023-02-15T03:35:43;35.97;;;15.02;;
19758;SDS011;10038;42.662;23.278;2023-02-15T03:38:12;23.05;;;12.38;;
19758;SDS011;10038;42.662;23.278;2023-02-15T03:40:41;25.08;;;13.05;;
19758;SDS011;10038;42.662;23.278;2023-02-15T03:43:29;23.02;;;13.00;;
19758;SDS011;10038;42.662;23.278;2023-02-15T03:45:58;31.48;;;15.57;;
19758;SDS011;10038;42.662;23.278;2023-02-15T03:48:30;25.77;;;13.10;;
19758;SDS011;10038;42.662;23.278;2023-02-15T03:51:01;28.58;;;13.65;;
19758;SDS011;10038;42.662;23.278;2023-02-15T03:53:48;31.42;;;14.60;;
19758;SDS011;10038;42.662;23.278;2023-02-15T03:56:16;27.38;;;12.90;;
19758;SDS011;10038;42.662;23.278;2023-02-15T03:58:45;27.77;;;14.23;;
19758;SDS011;10038;42.662;23.278;2023-02-15T04:01:32;26.77;;;12.45;;
19758;SDS011;10038;42.662;23.278;2023-02-15T04:04:23;26.67;;;10.73;;
19758;SDS011;10038;42.662;23.278;2023-02-15T04:06:50;32.63;;;14.90;;
19758;SDS011;10038;42.662;23.278;2023-02-15T04:09:18;27.55;;;12.30;;
19758;SDS011;10038;42.662;23.278;2023-02-15T04:12:03;26.48;;;12.60;;
19758;SDS011;10038;42.662;23.278;2023-02-15T04:14:30;25.95;;;13.98;;
19758;SDS011;10038;42.662;23.278;2023-02-15T04:17:14;26.17;;;14.68;;
19758;SDS011;10038;42.662;23.278;2023-02-15T04:19:41;28.75;;;15.02;;
19758;SDS011;10038;42.662;23.278;2023-02-15T04:22:25;35.28;;;15.75;;
19758;SDS011;10038;42.662;23.278;2023-02-15T04:25:11;35.50;;;15.60;;
19758;SDS011;10038;42.662;23.278;2023-02-15T04:27:38;26.35;;;11.82;;
19758;SDS011;10038;42.662;23.278;2023-02-15T04:30:07;30.63;;;13.63;;
19758;SDS011;10038;42.662;23.278;2023-02-15T04:32:35;32.15;;;13.10;;
19758;SDS011;10038;42.662;23.278;2023-02-15T04:35:01;25.85;;;12.98;;
19758;SDS011;10038;42.662;23.278;2023-02-15T04:37:28;27.95;;;12.60;;
19758;SDS011;10038;42.662;23.278;2023-02-15T04:39:54;32.17;;;15.65;;
19758;SDS011;10038;42.662;23.278;2023-02-15T04:42:22;30.17;;;14.50;;
19758;SDS011;10038;42.662;23.278;2023-02-15T04:44:48;32.03;;;14.00;;
19758;SDS011;10038;42.662;23.278;2023-02-15T04:47:15;26.90;;;12.90;;
19758;SDS011;10038;42.662;23.278;2023-02-15T04:49:41;26.48;;;14.00;;
19758;SDS011;10038;42.662;23.278;2023-02-15T04:52:08;29.35;;;14.43;;
19758;SDS011;10038;42.662;23.278;2023-02-15T04:54:37;31.38;;;14.35;;
19758;SDS011;10038;42.662;23.278;2023-02-15T04:57:04;27.50;;;12.90;;
19758;SDS011;10038;42.662;23.278;2023-02-15T04:59:34;29.25;;;14.65;;
19758;SDS011;10038;42.662;23.278;2023-02-15T05:02:00;29.48;;;13.45;;
19758;SDS011;10038;42.662;23.278;2023-02-15T05:04:27;20.70;;;12.07;;
19758;SDS011;10038;42.662;23.278;2023-02-15T05:06:53;26.00;;;13.65;;
19758;SDS011;10038;42.662;23.278;2023-02-15T05:09:20;27.48;;;12.57;;
19758;SDS011;10038;42.662;23.278;2023-02-15T05:11:46;30.15;;;14.75;;
19758;SDS011;10038;42.662;23.278;2023-02-15T05:14:15;27.25;;;13.60;;
19758;SDS011;10038;42.662;23.278;2023-02-15T05:16:42;30.52;;;14.73;;
19758;SDS011;10038;42.662;23.278;2023-02-15T05:19:10;26.75;;;12.48;;
19758;SDS011;10038;42.662;23.278;2023-02-15T05:21:37;30.98;;;13.52;;
19758;SDS011;10038;42.662;23.278;2023-02-15T05:24:03;25.98;;;13.25;;
19758;SDS011;10038;42.662;23.278;2023-02-15T05:26:50;22.98;;;13.73;;
19758;SDS011;10038;42.662;23.278;2023-02-15T05:29:34;35.25;;;17.90;;
19758;SDS011;10038;42.662;23.278;2023-02-15T05:32:04;27.98;;;14.18;;
19758;SDS011;10038;42.662;23.278;2023-02-15T05:34:31;31.33;;;16.90;;
19758;SDS011;10038;42.662;23.278;2023-02-15T05:36:57;27.33;;;13.68;;
19758;SDS011;10038;42.662;23.278;2023-02-15T05:39:24;34.50;;;16.17;;
19758;SDS011;10038;42.662;23.278;2023-02-15T05:41:53;30.73;;;15.55;;
19758;SDS011;10038;42.662;23.278;2023-02-15T05:44:20;37.47;;;15.07;;
19758;SDS011;10038;42.662;23.278;2023-02-15T05:46:46;29.33;;;14.30;;
19758;SDS011;10038;42.662;23.278;2023-02-15T05:49:14;28.42;;;14.18;;
19758;SDS011;10038;42.662;23.278;2023-02-15T05:51:40;28.35;;;15.18;;
19758;SDS011;10038;42.662;23.278;2023-02-15T05:54:08;23.90;;;12.27;;
19758;SDS011;10038;42.662;23.278;2023-02-15T05:56:34;30.80;;;13.70;;
19758;SDS011;10038;42.662;23.278;2023-02-15T05:59:01;35.92;;;13.98;;
19758;SDS011;10038;42.662;23.278;2023-02-15T06:01:27;30.88;;;14.63;;
19758;SDS011;10038;42.662;23.278;2023-02-15T06:03:54;26.98;;;12.68;;
19758;SDS011;10038;42.662;23.278;2023-02-15T06:06:22;31.45;;;15.68;;
19758;SDS011;10038;42.662;23.278;2023-02-15T06:08:48;36.25;;;16.10;;
19758;SDS011;10038;42.662;23.278;2023-02-15T06:11:17;23.73;;;12.27;;
19758;SDS011;10038;42.662;23.278;2023-02-15T06:13:46;30.58;;;14.52;;
19758;SDS011;10038;42.662;23.278;2023-02-15T06:16:12;25.50;;;12.50;;
19758;SDS011;10038;42.662;23.278;2023-02-15T06:18:40;30.65;;;14.65;;
19758;SDS011;10038;42.662;23.278;2023-02-15T06:21:07;36.97;;;14.65;;
19758;SDS011;10038;42.662;23.278;2023-02-15T06:23:38;22.73;;;12.43;;
19758;SDS011;10038;42.662;23.278;2023-02-15T06:26:09;26.13;;;13.45;;
19758;SDS011;10038;42.662;23.278;2023-02-15T06:28:37;30.10;;;14.10;;
19758;SDS011;10038;42.662;23.278;2023-02-15T06:31:06;25.98;;;12.55;;
19758;SDS011;10038;42.662;23.278;2023-02-15T06:33:32;31.30;;;14.48;;
19758;SDS011;10038;42.662;23.278;2023-02-15T06:36:01;27.77;;;12.98;;
19758;SDS011;10038;42.662;23.278;2023-02-15T06:38:30;28.30;;;14.13;;
19758;SDS011;10038;42.662;23.278;2023-02-15T06:41:01;24.77;;;12.35;;
19758;SDS011;10038;42.662;23.278;2023-02-15T06:43:27;31.63;;;14.30;;
19758;SDS011;10038;42.662;23.278;2023-02-15T06:45:54;29.95;;;11.88;;
19758;SDS011;10038;42.662;23.278;2023-02-15T06:48:20;27.17;;;13.43;;
19758;SDS011;10038;42.662;23.278;2023-02-15T06:50:46;28.55;;;13.80;;
19758;SDS011;10038;42.662;23.278;2023-02-15T06:53:24;22.80;;;13.30;;
19758;SDS011;10038;42.662;23.278;2023-02-15T06:56:00;24.13;;;12.70;;
19758;SDS011;10038;42.662;23.278;2023-02-15T06:58:31;28.90;;;13.02;;
19758;SDS011;10038;42.662;23.278;2023-02-15T07:01:00;20.92;;;11.68;;
19758;SDS011;10038;42.662;23.278;2023-02-15T07:03:26;20.92;;;11.15;;
19758;SDS011;10038;42.662;23.278;2023-02-15T07:05:54;23.63;;;12.32;;
19758;SDS011;10038;42.662;23.278;2023-02-15T07:08:20;30.25;;;14.02;;
19758;SDS011;10038;42.662;23.278;2023-02-15T07:10:48;18.60;;;10.15;;
19758;SDS011;10038;42.662;23.278;2023-02-15T07:13:16;25.52;;;11.63;;
19758;SDS011;10038;42.662;23.278;2023-02-15T07:15:44;28.00;;;12.10;;
19758;SDS011;10038;42.662;23.278;2023-02-15T07:18:15;19.85;;;11.00;;
19758;SDS011;10038;42.662;23.278;2023-02-15T07:20:44;26.88;;;11.50;;
19758;SDS011;10038;42.662;23.278;2023-02-15T07:23:11;26.85;;;11.18;;
19758;SDS011;10038;42.662;23.278;2023-02-15T07:25:39;21.73;;;11.17;;
19758;SDS011;10038;42.662;23.278;2023-02-15T07:28:05;20.93;;;11.30;;
19758;SDS011;10038;42.662;23.278;2023-02-15T07:30:33;21.53;;;12.03;;
19758;SDS011;10038;42.662;23.278;2023-02-15T07:33:00;20.83;;;11.23;;
19758;SDS011;10038;42.662;23.278;2023-02-15T07:35:47;25.47;;;12.50;;
19758;SDS011;10038;42.662;23.278;2023-02-15T07:38:14;24.50;;;11.53;;
19758;SDS011;10038;42.662;23.278;2023-02-15T07:40:42;20.13;;;11.73;;
19758;SDS011;10038;42.662;23.278;2023-02-15T07:43:09;18.97;;;10.53;;
19758;SDS011;10038;42.662;23.278;2023-02-15T07:45:37;23.13;;;10.17;;
19758;SDS011;10038;42.662;23.278;2023-02-15T07:48:05;20.88;;;10.60;;
19758;SDS011;10038;42.662;23.278;2023-02-15T07:50:33;22.85;;;10.98;;
19758;SDS011;10038;42.662;23.278;2023-02-15T07:53:00;12.77;;;8.87;;
19758;SDS011;10038;42.662;23.278;2023-02-15T07:55:27;22.13;;;11.87;;
19758;SDS011;10038;42.662;23.278;2023-02-15T07:57:55;19.90;;;10.83;;
19758;SDS011;10038;42.662;23.278;2023-02-15T08:00:22;20.20;;;10.70;;
19758;SDS011;10038;42.662;23.278;2023-02-15T08:02:52;22.40;;;11.10;;
19758;SDS011;10038;42.662;23.278;2023-02-15T08:05:38;24.07;;;11.93;;
19758;SDS011;10038;42.662;23.278;2023-02-15T08:08:09;20.67;;;11.30;;
19758;SDS011;10038;42.662;23.278;2023-02-15T08:10:56;18.50;;;11.53;;
19758;SDS011;10038;42.662;23.278;2023-02-15T08:13:42;19.30;;;10.10;;
19758;SDS011;10038;42.662;23.278;2023-02-15T08:16:18;22.07;;;11.00;;
19758;SDS011;10038;42.662;23.278;2023-02-15T08:18:46;21.73;;;10.83;;
19758;SDS011;10038;42.662;23.278;2023-02-15T08:21:14;20.53;;;11.00;;
19758;SDS011;10038;42.662;23.278;2023-02-15T08:23:40;22.30;;;11.23;;
19758;SDS011;10038;42.662;23.278;2023-02-15T08:26:06;18.93;;;9.73;;
19758;SDS011;10038;42.662;23.278;2023-02-15T08:28:33;21.85;;;10.68;;
19758;SDS011;10038;42.662;23.278;2023-02-15T08:31:03;19.93;;;11.33;;
19758;SDS011;10038;42.662;23.278;2023-02-15T08:33:30;23.70;;;12.30;;
19758;SDS011;10038;42.662;23.278;2023-02-15T08:35:58;19.90;;;9.70;;
19758;SDS011;10038;42.662;23.278;2023-02-15T08:38:27;20.77;;;10.57;;
19758;SDS011;10038;42.662;23.278;2023-02-15T08:40:54;25.57;;;11.37;;
19758;SDS011;10038;42.662;23.278;2023-02-15T08:43:20;21.70;;;11.25;;
19758;SDS011;10038;42.662;23.278;2023-02-15T08:45:49;29.60;;;11.55;;
19758;SDS011;10038;42.662;23.278;2023-02-15T08:48:16;28.07;;;12.20;;
19758;SDS011;10038;42.662;23.278;2023-02-15T08:50:43;25.13;;;11.50;;
19758;SDS011;10038;42.662;23.278;2023-02-15T08:53:11;21.37;;;10.70;;
19758;SDS011;10038;42.662;23.278;2023-02-15T08:55:37;18.10;;;10.50;;
19758;SDS011;10038;42.662;23.278;2023-02-15T08:58:04;28.90;;;12.20;;
19758;SDS011;10038;42.662;23.278;2023-02-15T09:00:31;24.08;;;11.43;;
19758;SDS011;10038;42.662;23.278;2023-02-15T09:02:57;24.63;;;12.38;;
19758;SDS011;10038;42.662;23.278;2023-02-15T09:05:24;21.92;;;11.10;;
19758;SDS011;10038;42.662;23.278;2023-02-15T09:07:50;24.45;;;12.00;;
19758;SDS011;10038;42.662;23.278;2023-02-15T09:10:18;25.10;;;11.90;;
19758;SDS011;10038;42.662;23.278;2023-02-15T09:12:45;23.57;;;12.37;;
19758;SDS011;10038;42.662;23.278;2023-02-15T09:15:11;21.35;;;11.45;;
19758;SDS011;10038;42.662;23.278;2023-02-15T09:17:38;23.93;;;10.60;;
19758;SDS011;10038;42.662;23.278;2023-02-15T09:20:05;21.90;;;12.20;;
19758;SDS011;10038;42.662;23.278;2023-02-15T09:22:33;24.50;;;14.30;;
19758;SDS011;10038;42.662;23.278;2023-02-15T09:24:59;21.43;;;10.80;;
19758;SDS011;10038;42.662;23.278;2023-02-15T09:27:27;28.13;;;14.30;;
19758;SDS011;10038;42.662;23.278;2023-02-15T09:29:53;22.67;;;12.00;;
19758;SDS011;10038;42.662;23.278;2023-02-15T09:32:20;23.60;;;12.73;;
19758;SDS011;10038;42.662;23.278;2023-02-15T09:34:47;24.93;;;13.90;;
19758;SDS011;10038;42.662;23.278;2023-02-15T09:37:13;26.13;;;13.97;;
19758;SDS011;10038;42.662;23.278;2023-02-15T09:39:41;23.57;;;11.30;;
19758;SDS011;10038;42.662;23.278;2023-02-15T09:42:28;17.97;;;10.80;;
19758;SDS011;10038;42.662;23.278;2023-02-15T09:47:48;21.00;;;11.77;;
19758;SDS011;10038;42.662;23.278;2023-02-15T09:50:23;19.70;;;11.40;;
19758;SDS011;10038;42.662;23.278;2023-02-15T09:53:07;26.30;;;15.00;;
19758;SDS011;10038;42.662;23.278;2023-02-15T09:55:38;22.37;;;11.10;;
19758;SDS011;10038;42.662;23.278;2023-02-15T09:58:13;21.90;;;13.50;;
19758;SDS011;10038;42.662;23.278;2023-02-15T10:00:47;25.20;;;13.53;;
19758;SDS011;10038;42.662;23.278;2023-02-15T10:03:23;20.40;;;11.80;;
19758;SDS011;10038;42.662;23.278;2023-02-15T10:05:56;19.63;;;11.60;;
19758;SDS011;10038;42.662;23.278;2023-02-15T10:08:34;19.80;;;11.73;;
19758;SDS011;10038;42.662;23.278;2023-02-15T10:11:07;25.77;;;13.23;;
19758;SDS011;10038;42.662;23.278;2023-02-15T10:13:59;19.80;;;12.63;;
19758;SDS011;10038;42.662;23.278;2023-02-15T10:16:33;28.33;;;12.63;;
19758;SDS011;10038;42.662;23.278;2023-02-15T10:19:07;24.93;;;12.83;;
19758;SDS011;10038;42.662;23.278;2023-02-15T10:21:39;23.83;;;13.10;;
19758;SDS011;10038;42.662;23.278;2023-02-15T10:24:13;26.50;;;13.00;;
19758;SDS011;10038;42.662;23.278;2023-02-15T10:26:49;23.83;;;12.37;;
19758;SDS011;10038;42.662;23.278;2023-02-15T10:29:23;25.43;;;13.90;;
19758;SDS011;10038;42.662;23.278;2023-02-15T10:32:00;26.30;;;13.90;;
19758;SDS011;10038;42.662;23.278;2023-02-15T10:34:30;25.70;;;13.10;;
19758;SDS011;10038;42.662;23.278;2023-02-15T10:37:11;26.03;;;14.20;;
19758;SDS011;10038;42.662;23.278;2023-02-15T10:39:44;25.23;;;14.60;;
19758;SDS011;10038;42.662;23.278;2023-02-15T10:42:16;23.80;;;12.80;;
19758;SDS011;10038;42.662;23.278;2023-02-15T10:44:50;24.67;;;12.77;;
19758;SDS011;10038;42.662;23.278;2023-02-15T10:47:22;34.30;;;15.47;;
19758;SDS011;10038;42.662;23.278;2023-02-15T10:49:55;27.43;;;14.40;;
19758;SDS011;10038;42.662;23.278;2023-02-15T10:52:29;22.27;;;13.60;;
19758;SDS011;10038;42.662;23.278;2023-02-15T10:55:04;20.47;;;11.47;;
19758;SDS011;10038;42.662;23.278;2023-02-15T10:57:38;21.67;;;13.50;;
19758;SDS011;10038;42.662;23.278;2023-02-15T11:00:11;29.53;;;14.57;;
19758;SDS011;10038;42.662;23.278;2023-02-15T11:02:45;20.20;;;14.30;;
19758;SDS011;10038;42.662;23.278;2023-02-15T11:05:24;27.30;;;15.50;;
19758;SDS011;10038;42.662;23.278;2023-02-15T11:07:54;26.67;;;15.00;;
19758;SDS011;10038;42.662;23.278;2023-02-15T11:10:26;23.40;;;13.53;;
19758;SDS011;10038;42.662;23.278;2023-02-15T11:12:54;22.57;;;14.53;;
19758;SDS011;10038;42.662;23.278;2023-02-15T11:15:29;23.00;;;15.30;;
19758;SDS011;10038;42.662;23.278;2023-02-15T11:18:00;21.97;;;14.03;;
19758;SDS011;10038;42.662;23.278;2023-02-15T11:20:29;23.70;;;14.03;;
19758;SDS011;10038;42.662;23.278;2023-02-15T11:22:57;26.13;;;16.30;;
19758;SDS011;10038;42.662;23.278;2023-02-15T11:25:25;23.47;;;15.50;;
19758;SDS011;10038;42.662;23.278;2023-02-15T11:27:52;20.57;;;13.97;;
19758;SDS011;10038;42.662;23.278;2023-02-15T11:30:24;23.10;;;15.00;;
19758;SDS011;10038;42.662;23.278;2023-02-15T11:32:53;20.90;;;13.97;;
19758;SDS011;10038;42.662;23.278;2023-02-15T11:35:22;20.93;;;14.13;;
19758;SDS011;10038;42.662;23.278;2023-02-15T11:37:54;28.87;;;15.83;;
19758;SDS011;10038;42.662;23.278;2023-02-15T11:40:22;22.70;;;14.10;;
19758;SDS011;10038;42.662;23.278;2023-02-15T11:42:51;20.60;;;14.00;;
19758;SDS011;10038;42.662;23.278;2023-02-15T11:45:20;18.80;;;14.03;;
19758;SDS011;10038;42.662;23.278;2023-02-15T11:47:48;17.63;;;11.93;;
19758;SDS011;10038;42.662;23.278;2023-02-15T11:50:17;19.77;;;13.17;;
19758;SDS011;10038;42.662;23.278;2023-02-15T11:52:47;18.53;;;13.57;;
19758;SDS011;10038;42.662;23.278;2023-02-15T11:55:18;23.73;;;14.20;;
19758;SDS011;10038;42.662;23.278;2023-02-15T11:57:51;20.00;;;13.20;;
19758;SDS011;10038;42.662;23.278;2023-02-15T12:00:23;23.57;;;15.30;;
19758;SDS011;10038;42.662;23.278;2023-02-15T12:02:56;22.53;;;14.30;;
19758;SDS011;10038;42.662;23.278;2023-02-15T12:05:28;19.67;;;13.57;;
19758;SDS011;10038;42.662;23.278;2023-02-15T12:08:00;24.83;;;15.67;;
19758;SDS011;10038;42.662;23.278;2023-02-15T12:10:30;23.03;;;13.60;;
19758;SDS011;10038;42.662;23.278;2023-02-15T12:13:10;19.53;;;14.00;;
19758;SDS011;10038;42.662;23.278;2023-02-15T12:15:37;20.13;;;14.90;;
19758;SDS011;10038;42.662;23.278;2023-02-15T12:18:19;19.73;;;14.57;;
19758;SDS011;10038;42.662;23.278;2023-02-15T12:20:47;22.87;;;14.07;;
19758;SDS011;10038;42.662;23.278;2023-02-15T12:23:15;27.90;;;17.10;;
19758;SDS011;10038;42.662;23.278;2023-02-15T12:25:49;26.53;;;15.73;;
19758;SDS011;10038;42.662;23.278;2023-02-15T12:28:23;23.40;;;16.97;;
19758;SDS011;10038;42.662;23.278;2023-02-15T12:30:54;22.07;;;15.50;;
19758;SDS011;10038;42.662;23.278;2023-02-15T12:33:24;22.53;;;15.90;;
19758;SDS011;10038;42.662;23.278;2023-02-15T12:35:56;30.40;;;18.97;;
19758;SDS011;10038;42.662;23.278;2023-02-15T12:38:24;27.37;;;16.33;;
19758;SDS011;10038;42.662;23.278;2023-02-15T12:40:59;25.87;;;15.53;;
19758;SDS011;10038;42.662;23.278;2023-02-15T12:43:26;22.67;;;14.50;;
19758;SDS011;10038;42.662;23.278;2023-02-15T12:45:53;21.07;;;14.20;;
19758;SDS011;10038;42.662;23.278;2023-02-15T12:48:30;25.17;;;15.50;;
19758;SDS011;10038;42.662;23.278;2023-02-15T12:51:06;26.63;;;16.97;;
19758;SDS011;10038;42.662;23.278;2023-02-15T12:53:34;20.73;;;13.67;;
19758;SDS011;10038;42.662;23.278;2023-02-15T12:56:01;22.47;;;13.93;;
19758;SDS011;10038;42.662;23.278;2023-02-15T12:58:29;23.30;;;15.20;;
19758;SDS011;10038;42.662;23.278;2023-02-15T13:01:03;23.87;;;15.20;;
19758;SDS011;10038;42.662;23.278;2023-02-15T13:03:30;23.73;;;14.30;;
19758;SDS011;10038;42.662;23.278;2023-02-15T13:05:56;27.07;;;17.43;;
19758;SDS011;10038;42.662;23.278;2023-02-15T13:08:27;22.33;;;13.33;;
19758;SDS011;10038;42.662;23.278;2023-02-15T13:10:54;25.03;;;15.40;;
19758;SDS011;10038;42.662;23.278;2023-02-15T13:13:23;25.23;;;16.33;;
19758;SDS011;10038;42.662;23.278;2023-02-15T13:15:51;26.60;;;15.40;;
19758;SDS011;10038;42.662;23.278;2023-02-15T13:18:19;23.70;;;14.77;;
19758;SDS011;10038;42.662;23.278;2023-02-15T13:20:46;21.27;;;13.70;;
19758;SDS011;10038;42.662;23.278;2023-02-15T13:23:19;24.50;;;16.07;;
19758;SDS011;10038;42.662;23.278;2023-02-15T13:25:49;22.10;;;15.47;;
19758;SDS011;10038;42.662;23.278;2023-02-15T13:28:17;19.67;;;14.40;;
19758;SDS011;10038;42.662;23.278;2023-02-15T13:30:45;22.87;;;15.30;;
19758;SDS011;10038;42.662;23.278;2023-02-15T13:33:14;21.97;;;14.17;;
19758;SDS011;10038;42.662;23.278;2023-02-15T13:35:44;23.07;;;14.20;;
19758;SDS011;10038;42.662;23.278;2023-02-15T13:38:22;25.40;;;14.67;;
19758;SDS011;10038;42.662;23.278;2023-02-15T13:40:55;24.03;;;14.50;;
19758;SDS011;10038;42.662;23.278;2023-02-15T13:43:25;23.97;;;14.63;;
19758;SDS011;10038;42.662;23.278;2023-02-15T13:45:57;24.97;;;15.30;;
19758;SDS011;10038;42.662;23.278;2023-02-15T13:48:29;24.27;;;15.97;;
19758;SDS011;10038;42.662;23.278;2023-02-15T13:51:05;26.03;;;16.53;;
19758;SDS011;10038;42.662;23.278;2023-02-15T13:53:36;27.13;;;15.47;;
19758;SDS011;10038;42.662;23.278;2023-02-15T13:56:07;24.90;;;15.87;;
19758;SDS011;10038;42.662;23.278;2023-02-15T13:58:48;26.20;;;17.07;;
19758;SDS011;10038;42.662;23.278;2023-02-15T14:01:22;24.13;;;14.07;;
19758;SDS011;10038;42.662;23.278;2023-02-15T14:03:52;27.60;;;15.80;;
19758;SDS011;10038;42.662;23.278;2023-02-15T14:06:27;24.70;;;14.63;;
19758;SDS011;10038;42.662;23.278;2023-02-15T14:08:58;24.43;;;15.30;;
19758;SDS011;10038;42.662;23.278;2023-02-15T14:11:29;26.17;;;16.50;;
19758;SDS011;10038;42.662;23.278;2023-02-15T14:14:06;27.47;;;14.50;;
19758;SDS011;10038;42.662;23.278;2023-02-15T14:16:39;24.77;;;14.33;;
19758;SDS011;10038;42.662;23.278;2023-02-15T14:19:13;26.03;;;15.43;;
19758;SDS011;10038;42.662;23.278;2023-02-15T14:21:42;25.27;;;15.73;;
19758;SDS011;10038;42.662;23.278;2023-02-15T14:24:14;28.57;;;17.10;;
19758;SDS011;10038;42.662;23.278;2023-02-15T14:26:45;27.57;;;14.00;;
19758;SDS011;10038;42.662;23.278;2023-02-15T14:29:16;25.83;;;13.67;;
19758;SDS011;10038;42.662;23.278;2023-02-15T14:31:45;26.63;;;16.30;;
19758;SDS011;10038;42.662;23.278;2023-02-15T14:34:17;24.93;;;15.00;;
19758;SDS011;10038;42.662;23.278;2023-02-15T14:36:44;26.23;;;17.47;;